createdAt,value
2018-04-02T00:01:12.703Z,7.70
2018-04-02T00:03:43.916Z,7.70
2018-04-02T00:06:15.276Z,7.80
2018-04-02T00:08:46.516Z,7.70
2018-04-02T00:11:18.696Z,7.70
2018-04-02T00:13:50.856Z,7.70
2018-04-02T00:16:21.727Z,7.60
2018-04-02T00:18:52.838Z,7.60
2018-04-02T00:21:24.396Z,7.50
2018-04-02T00:23:55.537Z,7.50
2018-04-02T00:26:29.136Z,7.40
2018-04-02T00:29:01.197Z,7.40
2018-04-02T00:31:33.456Z,7.40
2018-04-02T00:34:05.417Z,7.40
2018-04-02T00:36:36.256Z,7.40
2018-04-02T00:39:09.856Z,7.30
2018-04-02T00:41:41.556Z,7.40
2018-04-02T00:44:16.037Z,7.40
2018-04-02T00:46:50.659Z,7.40
2018-04-02T00:49:23.436Z,7.40
2018-04-02T00:51:55.296Z,7.50
2018-04-02T00:54:26.595Z,7.50
2018-04-02T00:56:59.617Z,7.40
2018-04-02T00:59:30.559Z,7.40
2018-04-02T01:02:01.396Z,7.30
2018-04-02T01:04:31.576Z,7.30
2018-04-02T01:07:03.716Z,7.30
2018-04-02T01:09:34.616Z,7.30
2018-04-02T01:12:06.376Z,7.30
2018-04-02T01:14:37.596Z,7.20
2018-04-02T01:17:09.477Z,7.10
2018-04-02T01:19:40.237Z,7.10
2018-04-02T01:22:12.696Z,7.00
2018-04-02T01:24:44.876Z,6.80
2018-04-02T01:27:16.916Z,6.70
2018-04-02T01:29:47.136Z,6.60
2018-04-02T01:32:19.516Z,6.40
2018-04-02T01:34:50.158Z,6.50
2018-04-02T01:37:21.096Z,6.40
2018-04-02T01:39:55.555Z,6.30
2018-04-02T01:42:27.876Z,6.30
2018-04-02T01:45:04.556Z,6.30
2018-04-02T01:47:37.236Z,6.20
2018-04-02T01:50:07.648Z,6.20
2018-04-02T01:52:39.596Z,6.20
2018-04-02T01:55:10.556Z,6.20
2018-04-02T01:57:41.577Z,6.20
2018-04-02T02:00:14.376Z,6.10
2018-04-02T02:02:47.257Z,6.10
2018-04-02T02:05:20.856Z,6.10
2018-04-02T02:07:51.496Z,6.00
2018-04-02T02:10:23.856Z,6.10
2018-04-02T02:12:58.476Z,6.10
2018-04-02T02:15:28.699Z,6.10
2018-04-02T02:18:00.256Z,6.10
2018-04-02T02:20:31.576Z,6.10
2018-04-02T02:23:05.576Z,6.00
2018-04-02T02:25:39.836Z,6.00
2018-04-02T02:28:13.336Z,6.00
2018-04-02T02:30:48.636Z,6.00
2018-04-02T02:33:20.337Z,6.00
2018-04-02T02:35:52.697Z,5.90
2018-04-02T02:38:24.456Z,5.90
2018-04-02T02:40:56.840Z,5.90
2018-04-02T02:43:28.276Z,5.80
2018-04-02T02:46:05.475Z,5.70
2018-04-02T02:48:39.277Z,5.70
2018-04-02T02:51:11.536Z,5.70
2018-04-02T02:53:44.516Z,5.70
2018-04-02T02:56:16.176Z,5.70
2018-04-02T02:58:47.716Z,5.70
2018-04-02T03:01:18.876Z,5.70
2018-04-02T03:03:50.317Z,5.60
2018-04-02T03:06:21.980Z,5.60
2018-04-02T03:08:53.936Z,5.60
2018-04-02T03:11:31.576Z,5.70
2018-04-02T03:14:06.256Z,5.70
2018-04-02T03:16:38.116Z,5.70
2018-04-02T03:19:10.175Z,5.60
2018-04-02T03:21:40.696Z,5.70
2018-04-02T03:24:11.836Z,5.60
2018-04-02T03:26:42.655Z,5.60
2018-04-02T03:29:15.156Z,5.60
2018-04-02T03:31:47.117Z,5.60
2018-04-02T03:34:17.656Z,5.50
2018-04-02T03:36:50.116Z,5.60
2018-04-02T03:39:22.788Z,5.60
2018-04-02T03:41:54.455Z,5.60
2018-04-02T03:44:25.396Z,5.60
2018-04-02T03:46:57.256Z,5.60
2018-04-02T03:49:30.596Z,5.60
2018-04-02T03:52:01.796Z,5.50
2018-04-02T03:54:38.256Z,5.50
2018-04-02T03:57:11.856Z,5.50
2018-04-02T03:59:43.196Z,5.50
2018-04-02T04:02:18.856Z,5.50
2018-04-02T04:04:53.876Z,5.60
2018-04-02T04:07:25.576Z,5.60
2018-04-02T04:10:00.255Z,5.60
2018-04-02T04:12:34.796Z,5.50
2018-04-02T04:15:09.316Z,5.60
2018-04-02T04:17:46.896Z,5.50
2018-04-02T04:20:26.436Z,5.60
2018-04-02T04:22:59.601Z,5.60
2018-04-02T04:25:32.315Z,5.60
2018-04-02T04:28:08.156Z,5.60
2018-04-02T04:30:40.016Z,5.60
2018-04-02T04:33:13.216Z,5.60
2018-04-02T04:35:45.475Z,5.60
2018-04-02T04:38:17.961Z,5.60
2018-04-02T04:40:49.516Z,5.70
2018-04-02T04:43:22.595Z,5.70
2018-04-02T04:45:53.596Z,5.70
2018-04-02T04:48:27.599Z,5.70
2018-04-02T04:50:59.295Z,5.70
2018-04-02T04:53:31.776Z,5.80
2018-04-02T04:56:02.317Z,5.80
2018-04-02T04:58:35.696Z,5.70
2018-04-02T05:01:06.456Z,5.70
2018-04-02T05:03:37.076Z,5.70
2018-04-02T05:06:07.896Z,5.90
2018-04-02T05:08:38.316Z,6.00
2018-04-02T05:11:10.296Z,6.00
2018-04-02T05:13:43.661Z,6.10
2018-04-02T05:16:17.178Z,6.10
2018-04-02T05:18:49.035Z,6.20
2018-04-02T05:21:20.997Z,6.20
2018-04-02T05:23:54.298Z,6.30
2018-04-02T05:26:26.875Z,6.30
2018-04-02T05:29:00.155Z,6.40
2018-04-02T05:31:32.536Z,6.30
2018-04-02T05:34:05.516Z,6.30
2018-04-02T05:36:43.596Z,6.40
2018-04-02T05:39:15.180Z,6.50
2018-04-02T05:41:49.595Z,6.50
2018-04-02T05:44:22.177Z,6.50
2018-04-02T05:46:54.535Z,6.50
2018-04-02T05:49:25.656Z,6.50
2018-04-02T05:51:57.595Z,6.60
2018-04-02T05:54:28.656Z,6.70
2018-04-02T05:57:00.356Z,6.70
2018-04-02T05:59:33.836Z,6.80
2018-04-02T06:02:08.609Z,6.80
2018-04-02T06:04:40.535Z,6.80
2018-04-02T06:07:12.076Z,6.80
2018-04-02T06:09:44.355Z,6.80
2018-04-02T06:12:15.295Z,6.80
2018-04-02T06:14:50.115Z,6.90
2018-04-02T06:17:25.877Z,6.90
2018-04-02T06:19:58.755Z,6.90
2018-04-02T06:22:29.635Z,7.00
2018-04-02T06:25:04.936Z,7.10
2018-04-02T06:27:35.975Z,7.10
2018-04-02T06:30:12.616Z,7.20
2018-04-02T06:32:43.476Z,7.20
2018-04-02T06:35:15.335Z,5.90
2018-04-02T06:37:50.975Z,7.60
2018-04-02T06:40:22.835Z,7.80
2018-04-02T06:42:57.256Z,8.00
2018-04-02T06:45:30.256Z,8.00
2018-04-02T06:48:02.616Z,8.10
2018-04-02T06:50:35.082Z,8.10
2018-04-02T06:53:08.075Z,8.20
2018-04-02T06:55:41.636Z,8.40
2018-04-02T06:58:13.135Z,8.40
2018-04-02T07:00:45.595Z,8.50
2018-04-02T07:03:17.157Z,8.50
2018-04-02T07:05:50.756Z,8.60
2018-04-02T07:08:23.535Z,8.60
2018-04-02T07:10:55.920Z,8.70
2018-04-02T07:13:31.569Z,8.90
2018-04-02T07:16:03.097Z,9.00
2018-04-02T07:18:34.255Z,9.10
2018-04-02T07:21:07.336Z,9.20
2018-04-02T07:23:38.075Z,9.20
2018-04-02T07:26:09.095Z,9.30
2018-04-02T07:28:40.756Z,9.30
2018-04-02T07:31:11.676Z,9.40
2018-04-02T07:33:42.455Z,9.40
2018-04-02T07:36:15.316Z,9.60
2018-04-02T07:38:48.097Z,9.70
2018-04-02T07:41:18.736Z,9.70
2018-04-02T07:43:49.775Z,9.70
2018-04-02T07:46:21.738Z,9.70
2018-04-02T07:48:53.995Z,9.70
2018-04-02T07:51:24.320Z,9.70
2018-04-02T07:53:59.556Z,9.80
2018-04-02T07:56:30.182Z,9.80
2018-04-02T07:59:00.817Z,9.70
2018-04-02T08:01:31.556Z,9.80
2018-04-02T08:04:03.816Z,9.80
2018-04-02T08:06:34.756Z,9.80
2018-04-02T08:09:06.736Z,9.80
2018-04-02T08:11:38.376Z,9.80
2018-04-02T08:14:11.876Z,9.90
2018-04-02T08:16:43.237Z,10.00
2018-04-02T08:19:14.976Z,10.20
2018-04-02T08:21:45.516Z,10.30
2018-04-02T08:24:16.236Z,10.40
2018-04-02T08:26:49.415Z,10.40
2018-04-02T08:29:20.476Z,10.60
2018-04-02T08:31:53.556Z,10.60
2018-04-02T08:34:25.636Z,10.60
2018-04-02T08:36:59.636Z,10.60
2018-04-02T08:39:35.636Z,10.60
2018-04-02T08:42:11.336Z,10.70
2018-04-02T08:44:45.156Z,10.80
2018-04-02T08:47:17.416Z,10.70
2018-04-02T08:49:49.617Z,10.70
2018-04-02T08:52:21.036Z,10.90
2018-04-02T08:54:51.636Z,11.00
2018-04-02T08:57:22.657Z,11.10
2018-04-02T08:59:53.636Z,11.20
2018-04-02T09:02:28.457Z,11.40
2018-04-02T09:05:02.999Z,11.50
2018-04-02T09:07:34.637Z,11.60
2018-04-02T09:10:05.657Z,11.60
2018-04-02T09:12:37.856Z,11.60
2018-04-02T09:15:10.016Z,11.70
2018-04-02T09:17:41.176Z,11.80
2018-04-02T09:20:13.017Z,11.90
2018-04-02T09:22:43.757Z,12.00
2018-04-02T09:25:15.666Z,12.00
2018-04-02T09:27:48.097Z,12.00
2018-04-02T09:30:18.616Z,12.00
2018-04-02T09:32:49.764Z,12.20
2018-04-02T09:35:22.135Z,12.40
2018-04-02T09:37:53.996Z,12.40
2018-04-02T09:40:25.956Z,12.40
2018-04-02T09:42:55.757Z,12.40
2018-04-02T09:45:27.655Z,12.20
2018-04-02T09:48:01.217Z,12.10
2018-04-02T09:50:37.638Z,12.10
2018-04-02T09:53:08.617Z,12.10
2018-04-02T09:55:40.277Z,12.20
2018-04-02T09:58:11.862Z,12.30
2018-04-02T10:00:44.679Z,12.50
2018-04-02T10:03:17.298Z,12.50
2018-04-02T10:05:49.156Z,12.60
2018-04-02T10:08:20.202Z,12.60
2018-04-02T10:10:52.457Z,12.50
2018-04-02T10:13:23.097Z,12.50
2018-04-02T10:15:52.657Z,12.30
2018-04-02T10:18:24.776Z,12.20
2018-04-02T10:20:57.135Z,12.20
2018-04-02T10:23:28.917Z,12.20
2018-04-02T10:25:59.940Z,12.40
2018-04-02T10:28:32.419Z,12.40
2018-04-02T10:31:03.686Z,12.30
2018-04-02T10:33:36.136Z,12.40
2018-04-02T10:36:08.096Z,12.10
2018-04-02T10:38:41.500Z,12.00
2018-04-02T10:41:12.697Z,11.90
2018-04-02T10:43:43.355Z,11.80
2018-04-02T10:46:15.535Z,11.80
2018-04-02T10:48:46.356Z,11.80
2018-04-02T10:51:17.496Z,11.90
2018-04-02T10:53:48.348Z,11.90
2018-04-02T10:56:21.937Z,12.00
2018-04-02T10:58:53.988Z,11.90
2018-04-02T11:01:25.237Z,11.90
2018-04-02T11:03:55.778Z,11.90
2018-04-02T11:06:28.357Z,12.00
2018-04-02T11:09:06.542Z,12.00
2018-04-02T11:11:37.497Z,12.00
2018-04-02T11:14:11.678Z,11.80
2018-04-02T11:16:44.176Z,11.70
2018-04-02T11:19:15.697Z,11.80
2018-04-02T11:21:48.116Z,11.70
2018-04-02T11:24:18.956Z,11.80
2018-04-02T11:26:49.577Z,11.80
2018-04-02T11:29:21.116Z,11.60
2018-04-02T11:31:53.295Z,11.50
2018-04-02T11:34:24.557Z,11.50
2018-04-02T11:36:58.341Z,11.50
2018-04-02T11:39:30.001Z,11.50
2018-04-02T11:42:00.696Z,11.60
2018-04-02T11:44:32.596Z,11.70
2018-04-02T11:47:03.217Z,11.70
2018-04-02T11:49:34.156Z,12.00
2018-04-02T11:52:04.997Z,12.00
2018-04-02T11:54:36.156Z,12.10
2018-04-02T11:57:08.098Z,12.40
2018-04-02T11:59:40.178Z,12.80
2018-04-02T12:02:13.361Z,13.10
2018-04-02T12:04:45.215Z,13.40
2018-04-02T12:07:16.558Z,13.50
2018-04-02T12:09:47.657Z,13.50
2018-04-02T12:12:19.556Z,13.70
2018-04-02T12:14:52.650Z,13.90
2018-04-02T12:17:24.917Z,14.20
2018-04-02T12:19:58.097Z,14.30
2018-04-02T12:22:29.558Z,14.30
2018-04-02T12:25:00.725Z,14.10
2018-04-02T12:27:31.717Z,13.90
2018-04-02T12:30:02.176Z,13.90
2018-04-02T12:32:35.056Z,13.80
2018-04-02T12:35:06.676Z,14.40
2018-04-02T12:37:41.015Z,14.50
2018-04-02T12:40:14.019Z,14.80
2018-04-02T12:42:45.057Z,15.10
2018-04-02T12:45:19.043Z,15.50
2018-04-02T12:47:50.198Z,15.50
2018-04-02T12:50:22.156Z,15.70
2018-04-02T12:52:53.017Z,16.00
2018-04-02T12:55:26.598Z,16.20
2018-04-02T12:58:00.295Z,16.40
2018-04-02T13:00:30.699Z,16.30
2018-04-02T13:03:07.496Z,16.20
2018-04-02T13:05:39.656Z,16.20
2018-04-02T13:08:10.656Z,16.50
2018-04-02T13:10:46.726Z,16.40
2018-04-02T13:13:17.295Z,16.30
2018-04-02T13:15:54.877Z,16.30
2018-04-02T13:18:27.675Z,16.30
2018-04-02T13:21:00.237Z,16.00
2018-04-02T13:23:32.616Z,16.00
2018-04-02T13:26:04.156Z,16.40
2018-04-02T13:28:35.935Z,16.50
2018-04-02T13:31:07.078Z,16.40
2018-04-02T13:33:40.256Z,16.70
2018-04-02T13:36:18.675Z,16.60
2018-04-02T13:38:51.357Z,16.40
2018-04-02T13:41:23.315Z,16.30
2018-04-02T13:43:55.380Z,16.10
2018-04-02T13:46:26.417Z,16.10
2018-04-02T13:49:00.116Z,16.10
2018-04-02T13:51:41.676Z,15.80
2018-04-02T13:54:13.717Z,15.50
2018-04-02T13:56:44.401Z,15.50
2018-04-02T13:59:16.578Z,15.50
2018-04-02T14:01:47.675Z,15.40
2018-04-02T14:04:19.657Z,15.20
2018-04-02T14:06:56.336Z,15.20
2018-04-02T14:09:27.596Z,15.10
2018-04-02T14:11:59.356Z,14.80
2018-04-02T14:14:30.277Z,14.70
2018-04-02T14:17:00.678Z,14.60
2018-04-02T14:19:31.716Z,14.60
2018-04-02T14:22:05.356Z,14.70
2018-04-02T14:24:39.391Z,14.70
2018-04-02T14:27:12.136Z,14.70
2018-04-02T14:29:43.595Z,14.60
2018-04-02T14:32:17.816Z,14.50
2018-04-02T14:34:48.716Z,14.60
2018-04-02T14:37:19.757Z,14.40
2018-04-02T14:39:51.717Z,14.30
2018-04-02T14:42:22.696Z,14.50
2018-04-02T14:44:53.320Z,14.40
2018-04-02T14:47:24.557Z,14.30
2018-04-02T14:49:56.316Z,14.30
2018-04-02T14:52:27.456Z,14.20
2018-04-02T14:54:59.516Z,14.30
2018-04-02T14:57:31.995Z,14.40
2018-04-02T15:00:03.717Z,14.40
2018-04-02T15:02:36.117Z,14.40
2018-04-02T15:05:07.077Z,14.40
2018-04-02T15:07:39.136Z,14.50
2018-04-02T15:10:11.396Z,14.60
2018-04-02T15:12:42.336Z,14.60
2018-04-02T15:15:16.335Z,14.60
2018-04-02T15:17:50.716Z,14.40
2018-04-02T15:20:21.596Z,14.40
2018-04-02T15:22:51.696Z,14.40
2018-04-02T15:25:23.377Z,14.30
2018-04-02T15:27:54.315Z,14.30
2018-04-02T15:30:25.357Z,14.10
2018-04-02T15:32:57.936Z,14.10
2018-04-02T15:35:31.936Z,14.10
2018-04-02T15:38:03.996Z,14.20
2018-04-02T15:40:37.716Z,14.20
2018-04-02T15:43:09.356Z,14.10
2018-04-02T15:45:42.957Z,14.10
2018-04-02T15:48:14.416Z,14.10
2018-04-02T15:50:46.375Z,14.10
2018-04-02T15:53:18.336Z,14.10
2018-04-02T15:55:50.296Z,14.20
2018-04-02T15:58:21.836Z,14.20
2018-04-02T16:00:52.176Z,14.10
2018-04-02T16:03:22.377Z,14.10
2018-04-02T16:05:57.016Z,14.20
2018-04-02T16:08:28.056Z,14.20
2018-04-02T16:10:59.296Z,14.10
2018-04-02T16:13:29.818Z,14.00
2018-04-02T16:16:03.695Z,14.00
2018-04-02T16:18:35.897Z,14.00
2018-04-02T16:21:08.377Z,14.00
2018-04-02T16:23:41.460Z,14.00
2018-04-02T16:26:13.716Z,13.90
2018-04-02T16:28:45.696Z,13.90
2018-04-02T16:31:16.317Z,13.90
2018-04-02T16:33:47.476Z,13.80
2018-04-02T16:36:19.236Z,13.80
2018-04-02T16:38:50.276Z,13.80
2018-04-02T16:41:20.596Z,13.80
2018-04-02T16:43:51.641Z,13.80
2018-04-02T16:46:23.737Z,13.80
2018-04-02T16:48:54.217Z,13.70
2018-04-02T16:51:27.116Z,13.60
2018-04-02T16:53:58.656Z,13.60
2018-04-02T16:56:29.597Z,13.70
2018-04-02T16:59:01.658Z,13.70
2018-04-02T17:01:36.079Z,13.70
2018-04-02T17:04:08.696Z,13.70
2018-04-02T17:06:40.198Z,13.70
2018-04-02T17:09:11.657Z,13.80
2018-04-02T17:11:42.758Z,13.80
2018-04-02T17:14:17.517Z,13.80
2018-04-02T17:16:48.456Z,13.90
2018-04-02T17:19:21.037Z,13.80
2018-04-02T17:21:58.322Z,13.80
2018-04-02T17:24:32.536Z,13.80
2018-04-02T17:27:05.316Z,13.80
2018-04-02T17:29:36.578Z,13.90
2018-04-02T17:32:08.716Z,13.90
2018-04-02T17:34:39.676Z,13.80
2018-04-02T17:37:12.057Z,13.80
2018-04-02T17:39:43.617Z,13.70
2018-04-02T17:42:14.956Z,13.70
2018-04-02T17:44:47.116Z,13.70
2018-04-02T17:47:22.558Z,13.70
2018-04-02T17:49:55.437Z,13.70
2018-04-02T17:52:26.382Z,13.60
2018-04-02T17:54:57.836Z,13.60
2018-04-02T17:57:29.376Z,13.60
2018-04-02T18:00:01.036Z,13.60
2018-04-02T18:02:32.176Z,13.50
2018-04-02T18:05:03.937Z,13.50
2018-04-02T18:07:35.201Z,13.50
2018-04-02T18:10:07.236Z,13.50
2018-04-02T18:12:40.117Z,13.60
2018-04-02T18:15:11.876Z,13.50
2018-04-02T18:17:42.415Z,13.50
2018-04-02T18:20:15.598Z,13.70
2018-04-02T18:22:47.256Z,13.80
2018-04-02T18:25:19.516Z,13.90
2018-04-02T18:27:52.211Z,14.00
2018-04-02T18:30:25.696Z,14.10
2018-04-02T18:38:48.173Z,14.30
2018-04-02T18:41:19.213Z,14.40
2018-04-02T18:43:51.073Z,14.40
2018-04-02T18:46:22.417Z,14.50
2018-04-02T18:48:54.712Z,14.40
2018-04-02T18:51:28.773Z,14.50
2018-04-02T18:53:59.853Z,14.60
2018-04-02T18:56:31.773Z,14.60
2018-04-02T18:59:06.013Z,14.60
2018-04-02T19:01:37.472Z,14.60
2018-04-02T19:04:09.433Z,14.60
2018-04-02T19:06:41.398Z,14.60
2018-04-02T19:09:12.853Z,14.60
2018-04-02T19:11:44.513Z,14.70
2018-04-02T19:14:14.774Z,14.60
2018-04-02T19:16:46.774Z,14.70
2018-04-02T19:19:22.432Z,14.70
2018-04-02T19:21:55.532Z,14.70
2018-04-02T19:24:27.603Z,14.70
2018-04-02T19:26:59.432Z,14.70
2018-04-02T19:29:31.014Z,14.70
2018-04-02T19:32:02.453Z,14.70
2018-04-02T19:34:34.313Z,14.70
2018-04-02T19:37:05.656Z,14.70
2018-04-02T19:39:36.272Z,14.70
2018-04-02T19:42:08.152Z,14.70
2018-04-02T19:44:44.734Z,14.70
2018-04-02T19:47:19.032Z,14.70
2018-04-02T19:49:50.272Z,14.70
2018-04-02T19:52:22.432Z,14.70
2018-04-02T19:54:54.412Z,14.70
2018-04-02T19:57:27.772Z,14.70
2018-04-02T19:59:59.972Z,14.70
2018-04-02T20:02:33.474Z,14.70
2018-04-02T20:05:06.974Z,14.60
2018-04-02T20:07:38.013Z,14.60
2018-04-02T20:10:10.372Z,14.60
2018-04-02T20:12:42.553Z,14.60
2018-04-02T20:15:16.253Z,14.60
2018-04-02T20:17:49.133Z,14.50
2018-04-02T20:20:20.894Z,14.50
2018-04-02T20:22:53.697Z,14.50
2018-04-02T20:25:24.613Z,14.50
2018-04-02T20:27:58.612Z,14.50
2018-04-02T20:30:31.912Z,14.60
2018-04-02T20:33:02.816Z,14.50
2018-04-02T20:35:34.411Z,14.50
2018-04-02T20:38:06.152Z,14.50
2018-04-02T20:40:37.307Z,14.50
2018-04-02T20:43:08.232Z,14.50
2018-04-02T20:45:40.192Z,14.50
2018-04-02T20:48:14.311Z,14.50
2018-04-02T20:50:47.611Z,14.50
2018-04-02T20:53:20.491Z,14.60
2018-04-02T20:55:53.053Z,14.60
2018-04-02T20:58:24.095Z,14.60
2018-04-02T21:00:55.555Z,14.60
2018-04-02T21:03:28.535Z,14.60
2018-04-02T21:06:00.775Z,14.60
2018-04-02T21:08:34.094Z,14.60
2018-04-02T21:11:06.055Z,14.60
2018-04-02T21:13:40.075Z,14.60
2018-04-02T21:16:12.435Z,14.60
2018-04-02T21:18:45.415Z,14.60
2018-04-02T21:21:22.722Z,14.60
2018-04-02T21:23:55.195Z,14.60
2018-04-02T21:26:26.815Z,14.60
2018-04-02T21:28:59.516Z,14.60
2018-04-02T21:31:30.455Z,14.60
2018-04-02T21:34:01.194Z,14.60
2018-04-02T21:36:32.821Z,14.60
2018-04-02T21:39:05.435Z,14.70
2018-04-02T21:41:36.883Z,14.70
2018-04-02T21:44:07.617Z,14.60
2018-04-02T21:46:39.878Z,14.70
2018-04-02T21:49:12.035Z,14.70
2018-04-02T21:51:43.895Z,14.80
2018-04-02T21:54:15.456Z,14.80
2018-04-02T21:56:49.554Z,14.80
2018-04-02T21:59:20.714Z,14.80
2018-04-02T22:01:53.174Z,14.80
2018-04-02T22:04:25.040Z,14.90
2018-04-02T22:07:06.795Z,14.90
2018-04-02T22:09:37.676Z,14.90
2018-04-02T22:12:09.796Z,14.90
2018-04-02T22:14:42.000Z,14.90
2018-04-02T22:17:14.758Z,15.00
2018-04-02T22:19:47.675Z,15.00
2018-04-02T22:22:18.791Z,15.00
2018-04-02T22:24:50.674Z,15.00
2018-04-02T22:27:22.635Z,15.00
2018-04-02T22:29:52.957Z,15.00
2018-04-02T22:32:24.418Z,15.00
2018-04-02T22:34:56.374Z,15.00
2018-04-02T22:37:28.581Z,15.00
2018-04-02T22:39:59.895Z,15.00
2018-04-02T22:42:32.255Z,15.00
2018-04-02T22:45:03.755Z,15.00
2018-04-02T22:47:35.057Z,15.00
2018-04-02T22:50:07.115Z,15.00
2018-04-02T22:52:43.775Z,14.90
2018-04-02T22:55:20.680Z,14.90
2018-04-02T22:57:51.794Z,14.90
2018-04-02T23:00:23.177Z,14.90
2018-04-02T23:02:57.259Z,15.00
2018-04-02T23:05:28.762Z,15.00
2018-04-02T23:08:00.058Z,15.10
2018-04-02T23:10:36.778Z,15.10
2018-04-02T23:13:12.297Z,15.10
2018-04-02T23:15:43.777Z,15.10
2018-04-02T23:18:16.399Z,15.10
2018-04-02T23:20:49.297Z,15.10
2018-04-02T23:23:20.740Z,15.10
2018-04-02T23:25:53.619Z,15.10
2018-04-02T23:28:25.898Z,15.20
2018-04-02T23:30:58.057Z,15.20
2018-04-02T23:33:28.699Z,15.20
2018-04-02T23:36:00.958Z,15.20
2018-04-02T23:38:31.905Z,15.20
2018-04-02T23:41:04.278Z,15.30
2018-04-02T23:43:36.339Z,15.20
2018-04-02T23:46:09.765Z,15.00
2018-04-02T23:48:44.458Z,14.80
2018-04-02T23:51:15.777Z,14.20
2018-04-02T23:53:47.257Z,13.80
2018-04-02T23:56:19.520Z,13.50
2018-04-02T23:58:51.178Z,13.50
